createdAt,value
2022-08-07T00:00:40.400Z,1010
2022-08-07T00:02:35.834Z,1010
2022-08-07T00:02:45.630Z,1010
2022-08-07T00:03:48.574Z,1010
2022-08-07T00:04:50.642Z,1009.9
2022-08-07T00:05:53.941Z,1010
2022-08-07T00:06:55.619Z,1009.9
2022-08-07T00:07:58.476Z,1009.9
2022-08-07T00:08:59.683Z,1009.9
2022-08-07T00:10:18.987Z,1010
2022-08-07T00:11:03.628Z,1010
2022-08-07T00:12:05.634Z,1010
2022-08-07T00:13:09.820Z,1010
2022-08-07T00:14:09.661Z,1010
2022-08-07T00:15:11.701Z,1010
2022-08-07T00:16:14.316Z,1010
2022-08-07T00:17:15.641Z,1010.1
2022-08-07T00:18:18.967Z,1010
2022-08-07T00:19:21.438Z,1010
2022-08-07T00:20:29.607Z,1009.9
2022-08-07T00:21:55.670Z,1010
2022-08-07T00:22:35.499Z,1010
2022-08-07T00:23:30.125Z,1010
2022-08-07T00:24:31.663Z,1010
2022-08-07T00:25:37.359Z,1010
2022-08-07T00:26:49.639Z,1010
2022-08-07T00:27:52.107Z,1010
2022-08-07T00:28:41.795Z,1010
2022-08-07T00:29:40.656Z,1010
2022-08-07T00:30:42.662Z,1010
2022-08-07T00:31:45.145Z,1010
2022-08-07T00:32:47.569Z,1010
2022-08-07T00:33:49.674Z,1010
2022-08-07T00:34:51.667Z,1010
2022-08-07T00:35:53.681Z,1010
2022-08-07T00:36:55.692Z,1010
2022-08-07T00:37:57.700Z,1010
2022-08-07T00:38:59.751Z,1010
2022-08-07T00:40:01.755Z,1010
2022-08-07T00:41:03.654Z,1010
2022-08-07T00:42:05.683Z,1010
2022-08-07T00:43:09.586Z,1010
2022-08-07T00:44:09.677Z,1010
2022-08-07T00:45:16.360Z,1009.9
2022-08-07T00:46:14.491Z,1009.9
2022-08-07T00:48:05.319Z,1010
2022-08-07T00:48:17.747Z,1010
2022-08-07T00:49:24.695Z,1010
2022-08-07T00:50:43.821Z,1009.9
2022-08-07T00:51:23.692Z,1009.9
2022-08-07T00:52:25.810Z,1009.9
2022-08-07T00:53:27.702Z,1009.9
2022-08-07T00:54:29.710Z,1009.9
2022-08-07T00:56:00.891Z,1009.9
2022-08-07T00:56:33.847Z,1009.9
2022-08-07T00:57:35.819Z,1009.9
2022-08-07T00:58:37.752Z,1009.9
2022-08-07T00:59:39.707Z,1009.9
2022-08-07T01:00:51.340Z,1009.9
2022-08-07T01:01:44.322Z,1009.9
2022-08-07T01:02:45.743Z,1009.9
2022-08-07T01:03:55.201Z,1009.9
2022-08-07T01:04:49.738Z,1009.9
2022-08-07T01:05:53.669Z,1009.9
2022-08-07T01:06:54.763Z,1009.9
2022-08-07T01:07:56.829Z,1009.9
2022-08-07T01:09:00.863Z,1009.9
2022-08-07T01:10:05.399Z,1010
2022-08-07T01:11:23.687Z,1010
2022-08-07T01:12:28.176Z,1009.9
2022-08-07T01:13:06.784Z,1010
2022-08-07T01:14:08.855Z,1009.9
2022-08-07T01:15:11.734Z,1010
2022-08-07T01:16:12.762Z,1009.9
2022-08-07T01:17:14.756Z,1009.9
2022-08-07T01:18:17.784Z,1010
2022-08-07T01:19:19.634Z,1010
2022-08-07T01:20:20.807Z,1010
2022-08-07T01:21:24.381Z,1010
2022-08-07T01:22:29.081Z,1010
2022-08-07T01:23:35.425Z,1010
2022-08-07T01:24:28.749Z,1010
2022-08-07T01:25:40.203Z,1010
2022-08-07T01:26:32.740Z,1010
2022-08-07T01:27:35.024Z,1010
2022-08-07T01:28:36.767Z,1010
2022-08-07T01:29:39.301Z,1010
2022-08-07T01:30:40.769Z,1010.1
2022-08-07T01:31:46.155Z,1010
2022-08-07T01:32:44.766Z,1010
2022-08-07T01:33:53.847Z,1010
2022-08-07T01:34:49.140Z,1010.1
2022-08-07T01:35:53.039Z,1010
2022-08-07T01:36:57.798Z,1010
2022-08-07T01:37:54.805Z,1010
2022-08-07T01:38:57.072Z,1010
2022-08-07T01:39:58.825Z,1010
2022-08-07T01:41:00.767Z,1010
2022-08-07T01:42:07.834Z,1010
2022-08-07T01:43:04.786Z,1010
2022-08-07T01:44:06.829Z,1010
2022-08-07T01:45:09.948Z,1010
2022-08-07T01:46:12.222Z,1010
2022-08-07T01:47:14.724Z,1010
2022-08-07T01:48:19.822Z,1010
2022-08-07T01:49:16.820Z,1010
2022-08-07T01:50:22.875Z,1010
2022-08-07T01:51:24.183Z,1010
2022-08-07T01:52:22.792Z,1009.9
2022-08-07T01:54:00.853Z,1009.9
2022-08-07T01:54:32.752Z,1010
2022-08-07T01:55:28.803Z,1009.9
2022-08-07T01:56:30.791Z,1010
2022-08-07T01:57:34.186Z,1010
2022-08-07T01:58:37.435Z,1010
2022-08-07T01:59:36.838Z,1010
2022-08-07T02:00:45.503Z,1010
2022-08-07T02:01:59.112Z,1010
2022-08-07T02:03:11.508Z,1010
2022-08-07T02:03:49.153Z,1010
2022-08-07T02:04:52.433Z,1010
2022-08-07T02:06:00.115Z,1010
2022-08-07T02:06:50.816Z,1010
2022-08-07T02:07:53.038Z,1010
2022-08-07T02:08:54.829Z,1010
2022-08-07T02:09:58.342Z,1010
2022-08-07T02:10:58.810Z,1010
2022-08-07T02:12:04.362Z,1010
2022-08-07T02:13:02.825Z,1010
2022-08-07T02:14:04.819Z,1010
2022-08-07T02:15:07.113Z,1010
2022-08-07T02:16:08.828Z,1010
2022-08-07T02:17:11.087Z,1010
2022-08-07T02:18:12.827Z,1010
2022-08-07T02:20:03.444Z,1010
2022-08-07T02:20:19.984Z,1010
2022-08-07T02:21:18.834Z,1010
2022-08-07T02:22:20.833Z,1009.9
2022-08-07T02:23:23.838Z,1009.9
2022-08-07T02:24:24.827Z,1010
2022-08-07T02:26:10.054Z,1010
2022-08-07T02:26:32.290Z,1010
2022-08-07T02:27:34.529Z,1010
2022-08-07T02:28:32.842Z,1009.9
2022-08-07T02:29:36.760Z,1009.9
2022-08-07T02:30:36.945Z,1009.9
2022-08-07T02:31:38.874Z,1009.9
2022-08-07T02:33:00.892Z,1009.9
2022-08-07T02:34:01.586Z,1009.9
2022-08-07T02:34:48.855Z,1009.9
2022-08-07T02:36:27.738Z,1009.9
2022-08-07T02:36:48.851Z,1009.9
2022-08-07T02:37:50.863Z,1009.9
2022-08-07T02:38:56.938Z,1009.9
2022-08-07T02:40:02.692Z,1009.9
2022-08-07T02:40:57.162Z,1009.9
2022-08-07T02:41:58.875Z,1009.9
2022-08-07T02:43:00.895Z,1009.9
2022-08-07T02:44:02.859Z,1009.9
2022-08-07T02:45:07.374Z,1009.9
2022-08-07T02:46:06.897Z,1009.9
2022-08-07T02:47:08.958Z,1009.9
2022-08-07T02:48:15.422Z,1009.9
2022-08-07T02:49:12.866Z,1009.9
2022-08-07T02:50:18.404Z,1009.9
2022-08-07T02:51:29.119Z,1010
2022-08-07T02:52:21.356Z,1010
2022-08-07T02:53:22.910Z,1010
2022-08-07T02:54:25.235Z,1010
2022-08-07T02:55:27.470Z,1010
2022-08-07T02:56:28.884Z,1010
2022-08-07T02:57:34.288Z,1010
2022-08-07T02:58:33.213Z,1010
2022-08-07T02:59:34.887Z,1010
2022-08-07T03:00:39.164Z,1009.9
2022-08-07T03:01:39.290Z,1010
2022-08-07T03:02:41.853Z,1010
2022-08-07T03:03:49.607Z,1010
2022-08-07T03:04:44.907Z,1010
2022-08-07T03:05:46.939Z,1010
2022-08-07T03:06:48.892Z,1009.9
2022-08-07T03:08:05.616Z,1010
2022-08-07T03:08:52.925Z,1010
2022-08-07T03:09:54.939Z,1010
2022-08-07T03:10:57.748Z,1009.9
2022-08-07T03:12:02.658Z,1009.9
2022-08-07T03:13:00.913Z,1009.9
2022-08-07T03:14:02.939Z,1009.9
2022-08-07T03:15:07.675Z,1009.9
2022-08-07T03:16:06.931Z,1009.9
2022-08-07T03:17:08.993Z,1009.9
2022-08-07T03:18:10.921Z,1009.9
2022-08-07T03:19:13.682Z,1009.9
2022-08-07T03:20:14.914Z,1009.9
2022-08-07T03:21:18.991Z,1009.9
2022-08-07T03:22:19.292Z,1009.8
2022-08-07T03:23:20.933Z,1009.9
2022-08-07T03:24:27.105Z,1009.8
2022-08-07T03:25:25.522Z,1009.8
2022-08-07T03:26:26.933Z,1009.8
2022-08-07T03:27:30.153Z,1009.8
2022-08-07T03:28:37.849Z,1009.8
2022-08-07T03:29:33.675Z,1009.8
2022-08-07T03:30:34.969Z,1009.8
2022-08-07T03:31:42.956Z,1009.8
2022-08-07T03:32:38.966Z,1009.8
2022-08-07T03:33:41.124Z,1009.8
2022-08-07T03:34:46.993Z,1009.8
2022-08-07T03:35:50.355Z,1009.8
2022-08-07T03:36:46.950Z,1009.8
2022-08-07T03:37:53.140Z,1009.8
2022-08-07T03:38:50.963Z,1009.8
2022-08-07T03:39:59.225Z,1009.8
2022-08-07T03:40:57.548Z,1009.9
2022-08-07T03:41:56.965Z,1009.8
2022-08-07T03:42:58.958Z,1009.8
2022-08-07T03:44:03.717Z,1009.8
2022-08-07T03:45:04.973Z,1009.8
2022-08-07T03:46:10.296Z,1009.8
2022-08-07T03:47:11.618Z,1009.8
2022-08-07T03:48:11.433Z,1009.9
2022-08-07T03:49:12.983Z,1009.8
2022-08-07T03:50:14.968Z,1009.8
2022-08-07T03:51:16.976Z,1009.8
2022-08-07T03:52:23.034Z,1009.8
2022-08-07T03:53:30.432Z,1009.8
2022-08-07T03:54:34.058Z,1009.8
2022-08-07T03:55:24.992Z,1009.8
2022-08-07T03:56:32.957Z,1009.9
2022-08-07T03:58:09.072Z,1009.9
2022-08-07T03:58:35.788Z,1009.9
2022-08-07T03:59:32.968Z,1010
2022-08-07T04:00:35.542Z,1010
2022-08-07T04:01:37.101Z,1009.9
2022-08-07T04:02:41.079Z,1009.9
2022-08-07T04:03:50.073Z,1009.9
2022-08-07T04:04:42.992Z,1009.9
2022-08-07T04:05:45.660Z,1009.9
2022-08-07T04:06:50.733Z,1009.9
2022-08-07T04:07:49.185Z,1009.9
2022-08-07T04:08:51.005Z,1009.9
2022-08-07T04:09:53.007Z,1009.9
2022-08-07T04:11:15.032Z,1009.9
2022-08-07T04:12:21.605Z,1009.9
2022-08-07T04:12:59.078Z,1009.9
2022-08-07T04:14:09.733Z,1009.9
2022-08-07T04:15:05.029Z,1010
2022-08-07T04:16:05.002Z,1010
2022-08-07T04:17:16.523Z,1009.9
2022-08-07T04:18:31.618Z,1009.9
2022-08-07T04:19:12.892Z,1009.9
2022-08-07T04:20:13.032Z,1010
2022-08-07T04:21:15.019Z,1010
2022-08-07T04:22:17.651Z,1010
2022-08-07T04:23:19.245Z,1010
2022-08-07T04:24:26.923Z,1010
2022-08-07T04:25:23.565Z,1010
2022-08-07T04:26:25.088Z,1010
2022-08-07T04:27:27.059Z,1010
2022-08-07T04:28:29.031Z,1010
2022-08-07T04:29:40.478Z,1010
2022-08-07T04:30:36.246Z,1010
2022-08-07T04:31:39.322Z,1010
2022-08-07T04:32:37.040Z,1010
2022-08-07T04:33:39.036Z,1010
2022-08-07T04:34:41.100Z,1010
2022-08-07T04:35:43.029Z,1010
2022-08-07T04:36:45.303Z,1010
2022-08-07T04:37:52.972Z,1010
2022-08-07T04:38:49.049Z,1010
2022-08-07T04:39:51.113Z,1010
2022-08-07T04:40:56.468Z,1010
2022-08-07T04:41:55.049Z,1010
2022-08-07T04:43:01.163Z,1010
2022-08-07T04:44:10.740Z,1010
2022-08-07T04:45:02.793Z,1010
2022-08-07T04:46:03.079Z,1010
2022-08-07T04:47:08.021Z,1010
2022-08-07T04:48:07.762Z,1010
2022-08-07T04:49:14.895Z,1010
2022-08-07T04:50:11.132Z,1010
2022-08-07T04:51:13.089Z,1010
2022-08-07T04:52:15.096Z,1010
2022-08-07T04:53:27.857Z,1010
2022-08-07T04:54:19.069Z,1010
2022-08-07T04:58:08.048Z,1010
2022-08-07T04:58:08.494Z,1010.1
2022-08-07T04:58:08.965Z,1010.1
2022-08-07T04:58:47.435Z,1010.1
2022-08-07T05:00:08.387Z,1010.1
2022-08-07T05:00:31.819Z,1010.1
2022-08-07T05:01:33.197Z,1010.2
2022-08-07T05:02:35.128Z,1010.2
2022-08-07T05:03:49.995Z,1010.2
2022-08-07T05:04:43.845Z,1010.1
2022-08-07T05:05:52.509Z,1010.1
2022-08-07T05:06:51.449Z,1010.1
2022-08-07T05:07:45.145Z,1010.1
2022-08-07T05:09:00.396Z,1010.2
2022-08-07T05:09:49.116Z,1010.2
2022-08-07T05:10:51.390Z,1010.2
2022-08-07T05:11:57.886Z,1010.2
2022-08-07T05:12:58.555Z,1010.1
2022-08-07T05:14:45.762Z,1010.2
2022-08-07T05:14:59.386Z,1010.2
2022-08-07T05:16:04.424Z,1010.2
2022-08-07T05:17:05.849Z,1010.2
2022-08-07T05:18:06.125Z,1010.2
2022-08-07T05:19:07.101Z,1010.2
2022-08-07T05:20:09.909Z,1010.2
2022-08-07T05:21:11.106Z,1010.3
2022-08-07T05:22:13.183Z,1010.3
2022-08-07T05:23:15.427Z,1010.2
2022-08-07T05:24:17.150Z,1010.2
2022-08-07T05:25:25.382Z,1010.2
2022-08-07T05:26:23.854Z,1010.2
2022-08-07T05:28:02.394Z,1010.2
2022-08-07T05:28:26.647Z,1010.2
2022-08-07T05:29:27.124Z,1010.2
2022-08-07T05:30:30.077Z,1010.3
2022-08-07T05:31:34.901Z,1010.2
2022-08-07T05:32:33.181Z,1010.2
2022-08-07T05:33:35.406Z,1010.2
2022-08-07T05:34:37.126Z,1010.2
2022-08-07T05:35:41.641Z,1010.2
2022-08-07T05:36:41.125Z,1010.2
2022-08-07T05:37:43.189Z,1010.3
2022-08-07T05:38:58.645Z,1010.3
2022-08-07T05:40:04.885Z,1010.3
2022-08-07T05:40:51.705Z,1010.3
2022-08-07T05:42:00.885Z,1010.3
2022-08-07T05:42:54.797Z,1010.3
2022-08-07T05:44:07.849Z,1010.3
2022-08-07T05:45:04.553Z,1010.4
2022-08-07T05:46:00.138Z,1010.4
2022-08-07T05:47:18.510Z,1010.4
2022-08-07T05:48:04.592Z,1010.4
2022-08-07T05:49:08.975Z,1010.4
2022-08-07T05:50:08.176Z,1010.4
2022-08-07T05:51:10.146Z,1010.4
2022-08-07T05:52:12.189Z,1010.4
2022-08-07T05:54:08.749Z,1010.3
2022-08-07T05:54:30.411Z,1010.4
2022-08-07T05:55:18.161Z,1010.4
2022-08-07T05:56:20.180Z,1010.4
2022-08-07T05:57:22.171Z,1010.5
2022-08-07T05:58:36.483Z,1010.4
2022-08-07T05:59:26.196Z,1010.4
2022-08-07T06:00:28.210Z,1010.4
2022-08-07T06:01:34.997Z,1010.4
2022-08-07T06:02:32.232Z,1010.5
2022-08-07T06:03:34.227Z,1010.5
2022-08-07T06:04:36.179Z,1010.5
2022-08-07T06:05:38.217Z,1010.5
2022-08-07T06:06:45.830Z,1010.5
2022-08-07T06:08:05.279Z,1010.6
2022-08-07T06:08:44.744Z,1010.5
2022-08-07T06:10:04.891Z,1010.6
2022-08-07T06:10:51.158Z,1010.5
2022-08-07T06:11:50.216Z,1010.5
2022-08-07T06:12:52.244Z,1010.5
2022-08-07T06:14:11.294Z,1010.6
2022-08-07T06:14:58.749Z,1010.6
2022-08-07T06:15:58.282Z,1010.6
2022-08-07T06:17:00.210Z,1010.6
2022-08-07T06:18:02.230Z,1010.6
2022-08-07T06:19:06.546Z,1010.6
2022-08-07T06:20:06.208Z,1010.5
2022-08-07T06:22:12.218Z,1010.4
2022-08-07T06:22:12.337Z,1010.5
2022-08-07T06:23:25.315Z,1010.1
2022-08-07T06:24:38.965Z,1010
2022-08-07T06:25:16.214Z,1009.9
2022-08-07T06:26:18.265Z,1009.8
2022-08-07T06:27:22.903Z,1009.7
2022-08-07T06:28:27.278Z,1009.6
2022-08-07T06:29:24.227Z,1009.6
2022-08-07T06:30:35.374Z,1009.6
2022-08-07T06:31:38.696Z,1009.5
2022-08-07T06:32:30.251Z,1009.4
2022-08-07T06:33:33.028Z,1009.5
2022-08-07T06:34:34.218Z,1009.5
2022-08-07T06:35:39.216Z,1009.6
2022-08-07T06:36:38.230Z,1009.6
2022-08-07T06:37:43.750Z,1009.7
2022-08-07T06:38:51.517Z,1009.7
2022-08-07T06:40:13.923Z,1009.7
2022-08-07T06:40:46.322Z,1009.7
2022-08-07T06:42:01.367Z,1009.7
2022-08-07T06:42:55.277Z,1009.7
2022-08-07T06:43:59.334Z,1009.8
2022-08-07T06:44:59.240Z,1009.7
2022-08-07T06:46:02.319Z,1009.8
2022-08-07T06:48:38.266Z,1009.8
2022-08-07T06:49:58.358Z,1009.8
2022-08-07T06:51:13.678Z,1009.8
2022-08-07T06:52:18.267Z,1009.8
2022-08-07T06:54:12.403Z,1009.9
2022-08-07T06:55:30.410Z,1009.9
2022-08-07T06:55:30.578Z,1009.9
2022-08-07T06:56:28.124Z,1009.9
2022-08-07T06:57:39.540Z,1009.9
2022-08-07T06:58:40.361Z,1009.9
2022-08-07T07:00:10.681Z,1009.8
2022-08-07T07:00:52.726Z,1009.9
2022-08-07T07:01:53.315Z,1009.9
2022-08-07T07:02:57.861Z,1009.9
2022-08-07T07:04:05.619Z,1009.9
2022-08-07T07:05:02.486Z,1009.9
2022-08-07T07:06:06.352Z,1009.9
2022-08-07T07:07:10.556Z,1009.9
2022-08-07T07:08:10.152Z,1009.9
2022-08-07T07:09:10.298Z,1009.9
2022-08-07T07:10:12.280Z,1009.9
2022-08-07T07:12:07.236Z,1009.9
2022-08-07T07:12:21.703Z,1009.9
2022-08-07T07:13:40.662Z,1009.9
2022-08-07T07:14:20.299Z,1009.9
2022-08-07T07:15:23.700Z,1009.9
2022-08-07T07:16:27.354Z,1009.9
2022-08-07T07:17:28.758Z,1009.9
2022-08-07T07:18:47.645Z,1009.9
2022-08-07T07:19:41.062Z,1009.9
2022-08-07T07:20:32.309Z,1009.9
2022-08-07T07:21:40.199Z,1009.8
2022-08-07T07:22:50.943Z,1009.9
2022-08-07T07:24:06.717Z,1009.8
2022-08-07T07:24:42.914Z,1009.8
2022-08-07T07:26:33.613Z,1009.8
2022-08-07T07:26:49.809Z,1009.9
2022-08-07T07:27:55.392Z,1009.9
2022-08-07T07:29:38.773Z,1009.8
2022-08-07T07:29:57.487Z,1009.8
2022-08-07T07:30:52.387Z,1009.8
2022-08-07T07:31:54.343Z,1009.8
2022-08-07T07:32:56.363Z,1009.8
2022-08-07T07:33:58.325Z,1009.8
2022-08-07T07:35:00.341Z,1009.8
2022-08-07T07:36:05.119Z,1009.8
2022-08-07T07:37:05.311Z,1009.8
2022-08-07T07:38:06.709Z,1009.8
2022-08-07T07:39:08.402Z,1009.8
2022-08-07T07:40:15.020Z,1009.8
2022-08-07T07:41:12.362Z,1009.7
2022-08-07T07:42:17.417Z,1009.9
2022-08-07T07:43:18.620Z,1009.9
2022-08-07T07:44:21.731Z,1009.8
2022-08-07T07:45:22.835Z,1009.8
2022-08-07T07:46:35.845Z,1009.8
2022-08-07T07:47:24.528Z,1009.8
2022-08-07T07:48:35.511Z,1009.8
2022-08-07T07:50:32.175Z,1009.9
2022-08-07T07:50:38.331Z,1010.3
2022-08-07T07:51:32.407Z,1010.5
2022-08-07T07:52:34.383Z,1010.1
2022-08-07T07:53:36.410Z,1009.9
2022-08-07T07:54:38.392Z,1010.1
2022-08-07T07:55:45.481Z,1010
2022-08-07T07:56:42.372Z,1009.9
2022-08-07T07:57:52.626Z,1009.8
2022-08-07T07:58:46.414Z,1009.8
2022-08-07T07:59:51.863Z,1009.8
2022-08-07T08:00:53.980Z,1009.8
2022-08-07T08:02:01.090Z,1009.8
2022-08-07T08:03:01.389Z,1009.8
2022-08-07T08:04:06.608Z,1009.8
2022-08-07T08:04:58.423Z,1009.8
2022-08-07T08:06:00.435Z,1009.8
2022-08-07T08:07:02.747Z,1009.8
2022-08-07T08:08:04.495Z,1009.8
2022-08-07T08:09:06.406Z,1009.8
2022-08-07T08:10:08.472Z,1009.8
2022-08-07T08:11:13.896Z,1009.9
2022-08-07T08:12:12.394Z,1009.8
2022-08-07T08:16:26.447Z,1009.9
2022-08-07T08:21:00.307Z,1010.2
2022-08-07T08:22:02.922Z,1010.1
2022-08-07T08:23:04.269Z,1009.9
2022-08-07T08:24:06.287Z,1009.9
2022-08-07T08:25:19.054Z,1010
2022-08-07T08:26:10.317Z,1010
2022-08-07T08:27:12.280Z,1010
2022-08-07T08:28:16.644Z,1010
2022-08-07T08:29:16.273Z,1010
2022-08-07T08:30:19.685Z,1010.2
2022-08-07T08:31:23.037Z,1010.1
2022-08-07T08:32:25.002Z,1010.1
2022-08-07T08:33:24.287Z,1010
2022-08-07T08:34:26.898Z,1010
2022-08-07T08:35:28.452Z,1010
2022-08-07T08:36:30.508Z,1010
2022-08-07T08:40:57.039Z,1010
2022-08-07T08:41:59.581Z,1010
2022-08-07T08:43:01.311Z,1010
2022-08-07T08:44:04.364Z,1010
2022-08-07T08:45:06.348Z,1010.1
2022-08-07T08:46:08.311Z,1010.1
2022-08-07T08:47:11.343Z,1010
2022-08-07T08:48:12.306Z,1010
2022-08-07T08:49:14.369Z,1010
2022-08-07T08:50:19.247Z,1010
2022-08-07T08:51:26.367Z,1010.1
2022-08-07T08:52:20.361Z,1010.1
2022-08-07T08:53:26.344Z,1010.1
2022-08-07T08:54:28.386Z,1010.1
2022-08-07T08:55:54.031Z,1010.1
2022-08-07T08:56:32.337Z,1010.1
2022-08-07T08:57:34.444Z,1010.4
2022-08-07T08:58:36.341Z,1010.2
2022-08-07T08:59:41.701Z,1010.2
2022-08-07T09:00:42.550Z,1010.2
2022-08-07T09:01:43.718Z,1010.1
2022-08-07T09:02:46.283Z,1010.1
2022-08-07T09:03:47.883Z,1010.1
2022-08-07T09:04:48.394Z,1010.2
2022-08-07T09:05:50.414Z,1010.1
2022-08-07T09:06:52.344Z,1010.1
2022-08-07T09:07:55.170Z,1010.1
2022-08-07T09:08:56.343Z,1010.1
2022-08-07T09:09:58.353Z,1010.2
2022-08-07T09:11:00.556Z,1010.1
2022-08-07T09:12:19.918Z,1010.1
2022-08-07T09:13:03.735Z,1010.1
2022-08-07T09:14:04.885Z,1010.2
2022-08-07T09:16:20.971Z,1010.1
2022-08-07T09:16:21.008Z,1010.1
2022-08-07T09:17:08.776Z,1010.1
2022-08-07T09:18:13.441Z,1010.2
2022-08-07T09:19:44.552Z,1010.1
2022-08-07T09:20:19.655Z,1010.2
2022-08-07T09:21:33.700Z,1010.2
2022-08-07T09:22:23.246Z,1010.2
2022-08-07T09:24:29.815Z,1010.2
2022-08-07T09:24:30.053Z,1010.2
2022-08-07T09:25:24.287Z,1010.2
2022-08-07T09:26:25.383Z,1010.2
2022-08-07T09:27:27.599Z,1010.2
2022-08-07T09:29:22.356Z,1010.3
2022-08-07T09:30:02.872Z,1010.2
2022-08-07T09:30:33.418Z,1010.2
2022-08-07T09:31:38.405Z,1010.1
2022-08-07T09:32:37.515Z,1010.1
2022-08-07T09:33:41.412Z,1010.1
2022-08-07T09:34:41.396Z,1010.2
2022-08-07T09:36:01.583Z,1010.2
2022-08-07T09:36:46.786Z,1010.2
2022-08-07T09:37:53.795Z,1010.2
2022-08-07T09:38:50.044Z,1010.2
2022-08-07T09:39:53.472Z,1010.2
2022-08-07T09:40:50.799Z,1010.2
2022-08-07T09:41:58.705Z,1010.2
2022-08-07T09:42:53.469Z,1010.2
2022-08-07T09:44:05.366Z,1010.1
2022-08-07T09:46:28.935Z,1010.1
2022-08-07T09:47:26.899Z,1010.1
2022-08-07T09:47:27.248Z,1010.1
2022-08-07T09:48:11.948Z,1010.1
2022-08-07T09:50:00.094Z,1010.1
2022-08-07T09:50:18.282Z,1010.1
2022-08-07T09:52:09.484Z,1010.1
2022-08-07T09:52:33.985Z,1010.1
2022-08-07T09:53:23.547Z,1010.1
2022-08-07T09:54:28.355Z,1010.1
2022-08-07T09:56:02.507Z,1010.1
2022-08-07T09:56:33.914Z,1010.1
2022-08-07T09:57:36.655Z,1010
2022-08-07T09:58:38.722Z,1010
2022-08-07T09:59:44.791Z,1010
2022-08-07T10:00:44.844Z,1010
2022-08-07T10:01:50.793Z,1010
2022-08-07T10:02:55.033Z,1010
2022-08-07T10:04:04.364Z,1010
2022-08-07T10:04:55.132Z,1010.1
2022-08-07T10:05:59.922Z,1010.1
2022-08-07T10:07:00.780Z,1010
2022-08-07T10:08:03.859Z,1010
2022-08-07T10:09:05.205Z,1010
2022-08-07T10:10:12.005Z,1010.1
2022-08-07T10:11:17.358Z,1010
2022-08-07T10:12:19.795Z,1010
2022-08-07T10:13:30.000Z,1010
2022-08-07T10:14:22.755Z,1010.1
2022-08-07T10:15:23.772Z,1010.1
2022-08-07T10:16:26.385Z,1010
2022-08-07T10:17:32.202Z,1010
2022-08-07T10:18:31.900Z,1010
2022-08-07T10:19:37.721Z,1010
2022-08-07T10:20:37.527Z,1010
2022-08-07T10:21:50.909Z,1010
2022-08-07T10:22:43.379Z,1010
2022-08-07T10:24:04.464Z,1010
2022-08-07T10:24:51.281Z,1010
2022-08-07T10:25:53.141Z,1009.9
2022-08-07T10:26:57.331Z,1009.9
2022-08-07T10:27:59.489Z,1009.9
2022-08-07T10:29:02.081Z,1009.9
2022-08-07T10:30:04.482Z,1009.9
2022-08-07T10:31:11.117Z,1009.9
2022-08-07T10:32:16.556Z,1009.9
2022-08-07T10:33:13.161Z,1009.9
2022-08-07T10:34:15.627Z,1009.8
2022-08-07T10:35:14.987Z,1009.8
2022-08-07T10:36:16.982Z,1009.9
2022-08-07T10:37:18.514Z,1009.9
2022-08-07T10:38:36.366Z,1009.9
2022-08-07T10:39:22.036Z,1009.8
2022-08-07T10:40:22.956Z,1009.8
2022-08-07T10:41:47.523Z,1009.8
2022-08-07T10:42:31.036Z,1009.8
2022-08-07T10:43:29.761Z,1009.8
2022-08-07T10:44:38.124Z,1009.8
2022-08-07T10:45:44.308Z,1009.8
2022-08-07T10:46:32.146Z,1009.8
2022-08-07T10:47:52.996Z,1009.8
2022-08-07T10:48:36.926Z,1009.8
2022-08-07T10:49:45.586Z,1009.7
2022-08-07T10:50:41.602Z,1009.7
2022-08-07T10:52:01.419Z,1009.6
2022-08-07T10:52:48.584Z,1009.6
2022-08-07T10:53:47.564Z,1009.6
2022-08-07T10:54:53.335Z,1009.7
2022-08-07T10:55:53.384Z,1009.7
2022-08-07T10:56:53.613Z,1009.7
2022-08-07T10:57:56.246Z,1009.7
2022-08-07T10:58:59.745Z,1009.7
2022-08-07T10:59:58.976Z,1009.7
2022-08-07T11:01:00.726Z,1009.7
2022-08-07T11:02:02.789Z,1009.7
2022-08-07T11:03:03.904Z,1009.7
2022-08-07T11:04:11.128Z,1009.7
2022-08-07T11:05:10.603Z,1009.7
2022-08-07T11:06:10.596Z,1009.7
2022-08-07T11:07:14.803Z,1009.7
2022-08-07T11:08:16.386Z,1009.7
2022-08-07T11:10:06.872Z,1009.7
2022-08-07T11:10:18.015Z,1009.6
2022-08-07T11:11:20.149Z,1009.6
2022-08-07T11:12:31.411Z,1009.6
2022-08-07T11:13:42.544Z,1009.6
2022-08-07T11:14:46.643Z,1009.6
2022-08-07T11:15:31.680Z,1009.6
2022-08-07T11:16:29.906Z,1009.6
2022-08-07T11:17:42.984Z,1009.6
2022-08-07T11:18:30.463Z,1009.6
2022-08-07T11:19:31.992Z,1009.6
2022-08-07T11:20:33.618Z,1009.6
2022-08-07T11:21:40.697Z,1009.6
2022-08-07T11:22:44.213Z,1009.6
2022-08-07T11:23:39.025Z,1009.6
2022-08-07T11:24:45.326Z,1009.6
2022-08-07T11:25:42.413Z,1009.6
2022-08-07T11:26:48.387Z,1009.6
2022-08-07T11:28:01.072Z,1009.6
2022-08-07T11:28:51.384Z,1009.6
2022-08-07T11:29:48.240Z,1009.6
2022-08-07T11:30:48.056Z,1009.6
2022-08-07T11:31:48.987Z,1009.6
2022-08-07T11:32:49.997Z,1009.6
2022-08-07T11:33:54.602Z,1009.6
2022-08-07T11:34:52.647Z,1009.5
2022-08-07T11:35:59.398Z,1009.5
2022-08-07T11:36:56.698Z,1009.5
2022-08-07T11:38:10.017Z,1009.5
2022-08-07T11:38:59.030Z,1009.5
2022-08-07T11:40:01.954Z,1009.5
2022-08-07T11:41:02.095Z,1009.5
2022-08-07T11:42:03.640Z,1009.4
2022-08-07T11:43:05.640Z,1009.4
2022-08-07T11:44:11.766Z,1009.4
2022-08-07T11:45:09.684Z,1009.4
2022-08-07T11:46:11.657Z,1009.3
2022-08-07T11:47:13.635Z,1009.3
2022-08-07T11:48:18.374Z,1009.3
2022-08-07T11:49:17.850Z,1009.4
2022-08-07T11:50:31.128Z,1009.4
2022-08-07T11:51:22.500Z,1009.4
2022-08-07T11:52:28.929Z,1009.3
2022-08-07T11:53:25.296Z,1009.3
2022-08-07T11:58:21.851Z,1009.3
2022-08-07T12:00:08.568Z,1009.3
2022-08-07T12:00:27.730Z,1009.4
2022-08-07T12:01:27.667Z,1009.4
2022-08-07T12:02:30.090Z,1009.3
2022-08-07T12:03:41.143Z,1009.3
2022-08-07T12:04:33.721Z,1009.3
2022-08-07T12:05:41.530Z,1009.3
2022-08-07T12:06:36.785Z,1009.3
2022-08-07T12:07:38.858Z,1009.3
2022-08-07T12:08:38.188Z,1009.3
2022-08-07T12:09:39.118Z,1009.2
2022-08-07T12:10:41.807Z,1009.2
2022-08-07T12:11:43.334Z,1009.2
2022-08-07T12:12:43.692Z,1009.2
2022-08-07T12:13:47.650Z,1009.2
2022-08-07T12:14:52.738Z,1009.2
2022-08-07T12:16:06.438Z,1009.3
2022-08-07T12:16:50.093Z,1009.3
2022-08-07T12:17:55.946Z,1009.3
2022-08-07T12:18:53.638Z,1009.3
2022-08-07T12:19:56.919Z,1009.3
2022-08-07T12:20:56.085Z,1009.3
2022-08-07T12:22:36.750Z,1009.3
2022-08-07T12:22:58.747Z,1009.3
2022-08-07T12:24:06.429Z,1009.3
2022-08-07T12:25:02.189Z,1009.3
2022-08-07T12:26:06.205Z,1009.2
2022-08-07T12:27:03.705Z,1009.3
2022-08-07T12:28:09.207Z,1009.2
2022-08-07T12:29:07.769Z,1009.2
2022-08-07T12:30:09.860Z,1009.1
2022-08-07T12:31:11.710Z,1009.1
2022-08-07T12:32:13.724Z,1009.1
2022-08-07T12:33:19.022Z,1009.1
2022-08-07T12:34:16.174Z,1009.1
2022-08-07T12:35:17.093Z,1009.1
2022-08-07T12:36:18.103Z,1009.1
2022-08-07T12:37:23.277Z,1009.1
2022-08-07T12:38:30.673Z,1009.1
2022-08-07T12:39:42.206Z,1009.1
2022-08-07T12:40:45.187Z,1009.1
2022-08-07T12:41:23.761Z,1009.1
2022-08-07T12:42:27.445Z,1009
2022-08-07T12:44:01.696Z,1009
2022-08-07T12:44:27.177Z,1009
2022-08-07T12:45:28.139Z,1009
2022-08-07T12:46:32.203Z,1009
2022-08-07T12:47:30.821Z,1009
2022-08-07T12:48:41.718Z,1009
2022-08-07T12:49:40.397Z,1009
2022-08-07T12:50:33.632Z,1009
2022-08-07T12:51:46.818Z,1009
2022-08-07T12:52:35.776Z,1009
2022-08-07T12:54:02.490Z,1009
2022-08-07T12:54:39.791Z,1009
2022-08-07T12:56:03.187Z,1009
2022-08-07T12:56:43.800Z,1009
2022-08-07T12:58:01.547Z,1009
2022-08-07T12:58:53.105Z,1009
2022-08-07T12:59:54.079Z,1008.9
2022-08-07T13:00:49.917Z,1008.9
2022-08-07T13:01:50.231Z,1008.9
2022-08-07T13:02:51.790Z,1008.9
2022-08-07T13:03:56.467Z,1008.9
2022-08-07T13:04:57.780Z,1008.9
2022-08-07T13:06:04.247Z,1008.8
2022-08-07T13:07:00.725Z,1008.8
2022-08-07T13:08:13.231Z,1008.8
2022-08-07T13:09:00.795Z,1008.8
2022-08-07T13:10:17.404Z,1008.8
2022-08-07T13:11:03.233Z,1008.8
2022-08-07T13:12:09.805Z,1008.8
2022-08-07T13:13:06.796Z,1008.8
2022-08-07T13:14:08.803Z,1008.7
2022-08-07T13:15:10.217Z,1008.8
2022-08-07T13:16:11.260Z,1008.8
2022-08-07T13:17:12.183Z,1008.8
2022-08-07T13:18:25.968Z,1008.8
2022-08-07T13:19:18.285Z,1008.8
2022-08-07T13:20:15.192Z,1008.8
2022-08-07T13:21:37.940Z,1008.8
2022-08-07T13:22:20.077Z,1008.7
2022-08-07T13:24:00.484Z,1008.7
2022-08-07T13:24:19.201Z,1008.7